Voyager Of The Seas — C6SE5 — position and weather

sailwx.info

Track history (hours):
 
Tides and Currents Weather Stations Pressure Air Temp Water Temp Dewpoint Dewpoint Depression Visibility Wind Speed Wind Dir Waves Ship Positions

Voyager Of The Seas

Operator: Royal Caribbean Cruises Ltd

Last reported at 2017-Aug-03 15:54 UTC. Time now 2017-Aug-16 19:18 UTC.
Position N 22°47' E 120°05'.
Warning: this ship's position is 13 days out of date.

Type: Passenger vessel. MMSI: 311317000.

Date/timePositionNaut miles runAvg speedWind from/ knotsBaromVisibWave heightAir tempDewpointWater temp
2017-Aug-03 15:54N 22°47' E 120°05'718.3
2017-Aug-03 15:30N 22°41' E 120°09'918.1
2017-Aug-03 15:00N 22°33' E 120°13'5 4.5
2017-Aug-03 13:57N 22°36' E 120°17'1 1.7
2017-Aug-03 13:15N 22°37' E 120°17'0 0.0
2017-Aug-03 10:40N 22°37' E 120°17'0 0.0
2017-Aug-03 10:28N 22°37' E 120°17'0 0.0
2017-Aug-03 09:58N 22°37' E 120°17'0 0.0
2017-Aug-03 09:28N 22°37' E 120°17'0 0.0
2017-Aug-03 08:55N 22°37' E 120°17'0 0.0
2017-Aug-03 08:28N 22°37' E 120°17'0 0.0
2017-Aug-03 07:58N 22°37' E 120°17'0 0.0
2017-Aug-03 07:28N 22°37' E 120°17'0 0.0
2017-Aug-03 06:58N 22°37' E 120°17'0 0.0
2017-Aug-03 06:28N 22°37' E 120°17'0 0.0
2017-Aug-03 05:58N 22°37' E 120°17'0 0.1
2017-Aug-03 05:30N 22°37' E 120°17'2 3.5
2017-Aug-03 05:00N 22°35' E 120°18'2 4.7
2017-Aug-03 04:30N 22°33' E 120°19'4 7.2
2017-Aug-03 04:00N 22°32' E 120°15'2 4.8
2017-Aug-03 03:30N 22°32' E 120°13'3 6.2
2017-Aug-03 03:00N 22°31' E 120°09'713.7
2017-Aug-03 02:30N 22°29' E 120°02'713.9
2017-Aug-03 02:00N 22°27' E 119°55'  
2017-Jul-27 08:27N 23°44' E 118°30'  
Track history (hours):
 
Tides and Currents Weather Stations Pressure Air Temp Water Temp Dewpoint Dewpoint Depression Visibility Wind Speed Wind Dir Waves Ship Positions

Voyager Of The Seas

Operator: Royal Caribbean Cruises Ltd

Last reported at 2017-Aug-03 15:54 UTC. Time now 2017-Aug-16 19:18 UTC.
Position N 22°47' E 120°05'.
Warning: this ship's position is 13 days out of date.

Type: Passenger vessel. MMSI: 311317000.

Date/timePositionNaut miles runAvg speedWind from/ knotsBaromVisibWave heightAir tempDewpointWater temp
2017-Aug-03 15:54N 22°47' E 120°05'718.3
2017-Aug-03 15:30N 22°41' E 120°09'918.1
2017-Aug-03 15:00N 22°33' E 120°13'5 4.5
2017-Aug-03 13:57N 22°36' E 120°17'1 1.7
2017-Aug-03 13:15N 22°37' E 120°17'0 0.0
2017-Aug-03 10:40N 22°37' E 120°17'0 0.0
2017-Aug-03 10:28N 22°37' E 120°17'0 0.0
2017-Aug-03 09:58N 22°37' E 120°17'0 0.0
2017-Aug-03 09:28N 22°37' E 120°17'0 0.0
2017-Aug-03 08:55N 22°37' E 120°17'0 0.0
2017-Aug-03 08:28N 22°37' E 120°17'0 0.0
2017-Aug-03 07:58N 22°37' E 120°17'0 0.0
2017-Aug-03 07:28N 22°37' E 120°17'0 0.0
2017-Aug-03 06:58N 22°37' E 120°17'0 0.0
2017-Aug-03 06:28N 22°37' E 120°17'0 0.0
2017-Aug-03 05:58N 22°37' E 120°17'0 0.1
2017-Aug-03 05:30N 22°37' E 120°17'2 3.5
2017-Aug-03 05:00N 22°35' E 120°18'2 4.7
2017-Aug-03 04:30N 22°33' E 120°19'4 7.2
2017-Aug-03 04:00N 22°32' E 120°15'2 4.8
2017-Aug-03 03:30N 22°32' E 120°13'3 6.2
2017-Aug-03 03:00N 22°31' E 120°09'713.7
2017-Aug-03 02:30N 22°29' E 120°02'713.9
2017-Aug-03 02:00N 22°27' E 119°55'  
2017-Jul-27 08:27N 23°44' E 118°30'  

Dump ship's entire track history